createdAt,value
2023-01-12T00:00:42.310Z,82.47
2023-01-12T00:03:24.692Z,82.71
2023-01-12T00:06:08.131Z,82.56
2023-01-12T00:08:40.966Z,82.76
2023-01-12T00:11:14.014Z,83.40
2023-01-12T00:13:46.897Z,82.65
2023-01-12T00:16:38.132Z,83.25
2023-01-12T00:19:12.752Z,82.88
2023-01-12T00:21:50.432Z,83.03
2023-01-12T00:24:23.307Z,83.00
2023-01-12T00:26:58.859Z,82.74
2023-01-12T00:29:34.111Z,83.06
2023-01-12T00:32:08.519Z,82.77
2023-01-12T00:34:41.482Z,83.52
2023-01-12T00:37:15.713Z,83.43
2023-01-12T00:40:01.353Z,83.03
2023-01-12T00:42:53.228Z,83.10
2023-01-12T00:45:25.728Z,83.51
2023-01-12T00:47:59.532Z,82.85
2023-01-12T00:50:34.644Z,83.35
2023-01-12T00:53:07.647Z,83.18
2023-01-12T00:55:40.464Z,83.27
2023-01-12T00:58:13.066Z,83.60
2023-01-12T01:00:45.681Z,83.81
2023-01-12T01:03:18.124Z,83.56
2023-01-12T01:05:50.891Z,83.08
2023-01-12T01:08:23.713Z,83.39
2023-01-12T01:11:04.996Z,83.50
2023-01-12T01:13:40.968Z,83.03
2023-01-12T01:16:15.740Z,83.79
2023-01-12T01:18:48.064Z,83.41
2023-01-12T01:21:21.157Z,83.50
2023-01-12T01:23:57.136Z,83.67
2023-01-12T01:26:32.659Z,83.38
2023-01-12T01:29:07.592Z,84.01
2023-01-12T01:31:40.712Z,84.03
2023-01-12T01:34:13.569Z,83.89
2023-01-12T01:36:46.662Z,83.37
2023-01-12T01:39:19.120Z,83.59
2023-01-12T01:41:51.683Z,83.78
2023-01-12T01:44:54.693Z,83.43
2023-01-12T01:47:34.807Z,83.99
2023-01-12T01:50:16.357Z,83.77
2023-01-12T01:52:53.680Z,83.89
2023-01-12T01:55:30.950Z,83.78
2023-01-12T01:58:11.182Z,84.30
2023-01-12T02:00:45.866Z,83.94
2023-01-12T02:03:20.531Z,83.80
2023-01-12T02:05:57.142Z,84.23
2023-01-12T02:08:45.076Z,83.70
2023-01-12T02:11:36.994Z,84.08
2023-01-12T02:14:29.166Z,83.76
2023-01-12T02:17:25.894Z,83.93
2023-01-12T02:20:52.336Z,84.25
2023-01-12T02:23:34.668Z,83.98
2023-01-12T02:26:33.699Z,84.34
2023-01-12T02:29:49.994Z,84.30
2023-01-12T02:32:33.082Z,84.41
2023-01-12T02:35:18.046Z,84.07
2023-01-12T02:38:00.368Z,84.25
2023-01-12T02:40:42.181Z,84.28
2023-01-12T02:43:21.831Z,84.19
2023-01-12T02:46:04.135Z,84.29
2023-01-12T02:48:41.807Z,84.05
2023-01-12T02:51:19.754Z,84.40
2023-01-12T02:53:57.551Z,84.41
2023-01-12T02:56:38.287Z,84.40
2023-01-12T02:59:15.422Z,84.31
2023-01-12T03:01:51.398Z,84.24
2023-01-12T03:04:26.172Z,84.45
2023-01-12T03:07:37.081Z,84.66
2023-01-12T03:10:46.047Z,84.30
2023-01-12T03:13:19.681Z,84.72
2023-01-12T03:15:55.981Z,84.45
2023-01-12T03:18:36.457Z,84.58
2023-01-12T03:21:14.651Z,84.57
2023-01-12T03:23:49.656Z,84.72
2023-01-12T03:26:28.819Z,84.83
2023-01-12T03:29:14.020Z,84.39
2023-01-12T03:31:46.948Z,84.59
2023-01-12T03:34:19.643Z,84.91
2023-01-12T03:37:00.776Z,84.75
2023-01-12T03:39:46.514Z,84.78
2023-01-12T03:42:25.971Z,84.76
2023-01-12T03:45:09.993Z,85.12
2023-01-12T03:47:45.331Z,84.62
2023-01-12T03:50:22.140Z,84.81
2023-01-12T03:52:58.629Z,84.73
2023-01-12T03:55:35.339Z,84.95
2023-01-12T03:58:10.471Z,85.04
2023-01-12T04:00:43.933Z,84.99
2023-01-12T04:03:18.232Z,84.62
2023-01-12T04:05:50.932Z,85.09
2023-01-12T04:08:23.808Z,84.82
2023-01-12T04:10:57.223Z,84.85
2023-01-12T04:13:29.785Z,84.67
2023-01-12T04:16:03.065Z,84.93
2023-01-12T04:18:36.810Z,85.38
2023-01-12T04:21:31.645Z,85.32
2023-01-12T04:24:04.463Z,85.02
2023-01-12T04:26:39.558Z,84.90
2023-01-12T04:29:12.426Z,85.02
2023-01-12T04:31:44.844Z,85.06
2023-01-12T04:34:17.656Z,84.98
2023-01-12T04:36:50.183Z,84.92
2023-01-12T04:39:22.612Z,85.07
2023-01-12T04:41:55.958Z,85.25
2023-01-12T04:44:28.551Z,84.93
2023-01-12T04:47:14.182Z,84.67
2023-01-12T04:49:50.091Z,85.04
2023-01-12T04:52:22.995Z,85.19
2023-01-12T04:54:57.066Z,85.20
2023-01-12T04:57:33.323Z,85.37
2023-01-12T05:00:17.820Z,85.23
2023-01-12T05:02:50.503Z,85.34
2023-01-12T05:05:23.188Z,85.19
2023-01-12T05:08:15.941Z,85.21
2023-01-12T05:10:52.265Z,85.27
2023-01-12T05:13:25.685Z,85.14
2023-01-12T05:16:19.433Z,85.08
2023-01-12T05:18:53.652Z,85.12
2023-01-12T05:21:27.401Z,85.28
2023-01-12T05:24:02.612Z,85.29
2023-01-12T05:26:38.505Z,85.04
2023-01-12T05:29:18.020Z,85.36
2023-01-12T05:31:50.717Z,85.45
2023-01-12T05:34:23.786Z,85.48
2023-01-12T05:36:57.312Z,85.41
2023-01-12T05:39:29.835Z,85.26
2023-01-12T05:42:20.187Z,85.32
2023-01-12T05:44:53.066Z,85.22
2023-01-12T05:47:26.656Z,85.36
2023-01-12T05:49:59.653Z,85.34
2023-01-12T05:52:32.558Z,85.27
2023-01-12T05:55:05.184Z,85.22
2023-01-12T05:57:41.803Z,85.46
2023-01-12T06:00:18.724Z,85.40
2023-01-12T06:02:51.380Z,85.53
2023-01-12T06:05:24.019Z,85.50
2023-01-12T06:07:57.559Z,85.60
2023-01-12T06:10:30.357Z,85.48
2023-01-12T06:13:20.907Z,85.44
2023-01-12T06:15:53.880Z,85.45
2023-01-12T06:18:26.535Z,85.46
2023-01-12T06:21:03.381Z,85.73
2023-01-12T06:23:39.252Z,85.68
2023-01-12T06:26:15.252Z,85.69
2023-01-12T06:28:47.733Z,85.61
2023-01-12T06:31:20.686Z,85.51
2023-01-12T06:33:53.241Z,85.74
2023-01-12T06:36:36.057Z,85.65
2023-01-12T06:39:09.232Z,85.65
2023-01-12T06:41:59.872Z,85.67
2023-01-12T06:44:34.354Z,85.57
2023-01-12T06:47:07.409Z,85.94
2023-01-12T06:49:39.907Z,85.77
2023-01-12T06:52:13.233Z,86.12
2023-01-12T06:54:45.700Z,85.71
2023-01-12T06:57:18.496Z,85.64
2023-01-12T06:59:51.035Z,85.72
2023-01-12T07:02:24.234Z,85.67
2023-01-12T07:05:00.532Z,85.93
2023-01-12T07:07:34.013Z,85.60
2023-01-12T07:10:07.144Z,85.75
2023-01-12T07:12:40.198Z,85.57
2023-01-12T07:15:14.844Z,85.81
2023-01-12T07:17:47.573Z,85.85
2023-01-12T07:20:20.321Z,85.74
2023-01-12T07:22:53.043Z,85.73
2023-01-12T07:25:26.145Z,85.76
2023-01-12T07:28:00.369Z,85.51
2023-01-12T07:30:32.885Z,85.73
2023-01-12T07:33:13.897Z,85.51
2023-01-12T07:35:46.839Z,85.62
2023-01-12T07:38:19.729Z,85.78
2023-01-12T07:40:52.311Z,85.45
2023-01-12T07:43:25.441Z,85.56
2023-01-12T07:46:01.756Z,85.70
2023-01-12T07:48:35.309Z,85.62
2023-01-12T07:51:07.982Z,85.59
2023-01-12T07:53:41.376Z,85.46
2023-01-12T07:56:16.321Z,85.58
2023-01-12T07:58:50.369Z,85.60
2023-01-12T08:01:23.018Z,85.23
2023-01-12T08:03:56.750Z,85.39
2023-01-12T08:06:31.914Z,85.48
2023-01-12T08:09:05.343Z,85.49
2023-01-12T08:11:40.374Z,85.55
2023-01-12T08:14:25.106Z,85.44
2023-01-12T08:16:57.579Z,85.56
2023-01-12T08:19:37.934Z,85.43
2023-01-12T08:22:16.969Z,85.73
2023-01-12T08:24:56.365Z,85.62
2023-01-12T08:27:35.998Z,85.37
2023-01-12T08:30:15.379Z,85.07
2023-01-12T08:32:48.067Z,85.44
2023-01-12T08:35:24.470Z,85.15
2023-01-12T08:37:58.906Z,85.28
2023-01-12T08:40:45.382Z,85.09
2023-01-12T08:43:39.602Z,84.89
2023-01-12T08:46:12.635Z,85.22
2023-01-12T08:48:45.725Z,84.68
2023-01-12T08:51:19.307Z,84.90
2023-01-12T08:53:51.792Z,84.91
2023-01-12T08:56:25.610Z,84.88
2023-01-12T08:59:06.397Z,85.27
2023-01-12T09:01:45.245Z,85.09
2023-01-12T09:04:18.131Z,84.81
2023-01-12T09:06:51.108Z,84.42
2023-01-12T09:09:23.947Z,85.08
2023-01-12T09:11:58.894Z,85.13
2023-01-12T09:14:32.066Z,84.76
2023-01-12T09:17:05.221Z,84.75
2023-01-12T09:19:37.985Z,85.02
2023-01-12T09:22:12.910Z,84.87
2023-01-12T09:24:46.019Z,84.81
2023-01-12T09:27:19.615Z,84.33
2023-01-12T09:29:52.551Z,84.13
2023-01-12T09:32:36.020Z,83.70
2023-01-12T09:35:10.704Z,84.18
2023-01-12T09:37:45.233Z,84.56
2023-01-12T09:40:19.687Z,84.15
2023-01-12T09:43:11.414Z,84.11
2023-01-12T09:46:04.070Z,84.32
2023-01-12T09:48:37.957Z,84.82
2023-01-12T09:51:15.824Z,84.73
2023-01-12T09:53:48.732Z,84.61
2023-01-12T09:56:30.272Z,83.94
2023-01-12T09:59:30.826Z,83.67
2023-01-12T10:02:04.092Z,82.78
2023-01-12T10:04:40.133Z,78.89
2023-01-12T10:07:18.938Z,76.37
2023-01-12T10:09:52.316Z,75.64
2023-01-12T10:12:35.597Z,74.53
2023-01-12T10:15:23.754Z,74.35
2023-01-12T10:18:04.304Z,73.38
2023-01-12T10:20:42.825Z,71.96
2023-01-12T10:23:20.702Z,71.98
2023-01-12T10:25:59.826Z,70.98
2023-01-12T10:28:35.929Z,71.19
2023-01-12T10:31:12.996Z,70.85
2023-01-12T10:34:05.322Z,71.06
2023-01-12T10:36:43.603Z,70.73
2023-01-12T10:39:40.124Z,69.33
2023-01-12T10:42:38.019Z,69.23
2023-01-12T10:45:20.959Z,69.12
2023-01-12T10:47:57.839Z,68.10
2023-01-12T10:50:33.388Z,68.64
2023-01-12T10:53:08.881Z,68.24
2023-01-12T10:55:43.998Z,67.54
2023-01-12T10:58:27.421Z,67.73
2023-01-12T11:01:01.783Z,66.69
2023-01-12T11:03:37.583Z,66.74
2023-01-12T11:06:24.393Z,67.12
2023-01-12T11:08:58.626Z,66.95
2023-01-12T11:11:34.614Z,69.17
2023-01-12T11:14:09.476Z,68.07
2023-01-12T11:16:50.625Z,68.19
2023-01-12T11:19:28.169Z,68.45
2023-01-12T11:22:07.478Z,68.91
2023-01-12T11:24:45.543Z,70.33
2023-01-12T11:27:26.286Z,70.92
2023-01-12T11:30:06.152Z,70.71
2023-01-12T11:32:44.681Z,72.32
2023-01-12T11:35:29.337Z,71.94
2023-01-12T11:38:08.023Z,72.27
2023-01-12T11:40:43.681Z,72.82
2023-01-12T11:43:47.126Z,73.68
2023-01-12T11:46:26.969Z,73.59
2023-01-12T11:49:11.469Z,73.43
2023-01-12T11:51:45.621Z,73.79
2023-01-12T11:54:20.106Z,74.43
2023-01-12T11:57:15.135Z,74.45
2023-01-12T11:59:59.582Z,74.25
2023-01-12T12:02:34.588Z,74.01
2023-01-12T12:05:20.372Z,74.74
2023-01-12T12:08:10.744Z,75.21
2023-01-12T12:10:50.132Z,74.30
2023-01-12T12:13:43.415Z,74.60
2023-01-12T12:16:32.450Z,75.25
2023-01-12T12:19:27.180Z,74.81
2023-01-12T12:22:13.229Z,74.89
2023-01-12T12:25:01.544Z,74.61
2023-01-12T12:28:05.544Z,74.69
2023-01-12T12:31:08.792Z,74.51
2023-01-12T12:33:59.918Z,75.34
2023-01-12T12:36:48.930Z,74.87
2023-01-12T12:39:45.090Z,75.39
2023-01-12T12:43:01.394Z,74.69
2023-01-12T12:45:44.638Z,75.04
2023-01-12T12:48:21.513Z,75.47
2023-01-12T12:51:07.641Z,75.28
2023-01-12T12:53:45.100Z,75.31
2023-01-12T12:56:22.325Z,75.13
2023-01-12T12:59:03.059Z,74.79
2023-01-12T13:01:55.804Z,75.29
2023-01-12T13:04:46.697Z,74.86
2023-01-12T13:07:23.122Z,75.77
2023-01-12T13:10:18.344Z,75.61
2023-01-12T13:13:00.274Z,75.31
2023-01-12T13:15:37.829Z,75.61
2023-01-12T13:18:45.026Z,75.59
2023-01-12T13:21:57.577Z,75.25
2023-01-12T13:24:42.267Z,75.91
2023-01-12T13:27:52.827Z,75.42
2023-01-12T13:30:50.696Z,75.53
2023-01-12T13:33:29.658Z,75.40
2023-01-12T13:36:12.175Z,75.62
2023-01-12T13:39:12.125Z,76.00
2023-01-12T13:42:04.835Z,75.25
2023-01-12T13:44:42.384Z,75.69
2023-01-12T13:47:38.965Z,76.01
2023-01-12T13:50:21.125Z,75.58
2023-01-12T13:53:02.196Z,75.85
2023-01-12T13:55:37.391Z,75.67
2023-01-12T13:58:20.263Z,75.69
2023-01-12T14:01:00.661Z,75.45
2023-01-12T14:03:51.438Z,75.93
2023-01-12T14:06:33.291Z,75.70
2023-01-12T14:09:17.326Z,75.46
2023-01-12T14:12:11.818Z,75.64
2023-01-12T14:15:33.966Z,75.49
2023-01-12T14:18:12.324Z,75.38
2023-01-12T14:20:48.857Z,75.47
2023-01-12T14:23:25.137Z,75.22
2023-01-12T14:26:22.936Z,75.83
2023-01-12T14:28:57.795Z,75.22
2023-01-12T14:31:45.498Z,75.54
2023-01-12T14:34:29.205Z,75.32
2023-01-12T14:37:03.481Z,75.51
2023-01-12T14:39:42.080Z,75.26
2023-01-12T14:42:42.381Z,75.70
2023-01-12T14:45:43.825Z,75.20
2023-01-12T14:48:31.229Z,75.77
2023-01-12T14:51:16.234Z,75.37
2023-01-12T14:53:49.774Z,75.74
2023-01-12T14:56:35.100Z,75.36
2023-01-12T14:59:16.210Z,75.39
2023-01-12T15:01:49.116Z,75.12
2023-01-12T15:04:25.252Z,75.52
2023-01-12T15:07:06.935Z,75.33
2023-01-12T15:09:56.415Z,75.20
2023-01-12T15:12:51.048Z,75.17
2023-01-12T15:15:27.210Z,75.82
2023-01-12T15:18:19.676Z,75.47
2023-01-12T15:21:14.656Z,75.32
2023-01-12T15:24:08.746Z,75.45
2023-01-12T15:26:51.098Z,75.63
2023-01-12T15:29:29.552Z,75.50
2023-01-12T15:32:03.393Z,75.51
2023-01-12T15:34:42.288Z,75.67
2023-01-12T15:37:21.689Z,75.76
2023-01-12T15:39:57.797Z,75.79
2023-01-12T15:42:32.188Z,75.65
2023-01-12T15:45:05.282Z,75.94
2023-01-12T15:47:38.136Z,75.61
2023-01-12T15:50:14.905Z,75.68
2023-01-12T15:52:48.747Z,76.13
2023-01-12T15:55:24.745Z,76.07
2023-01-12T15:57:59.498Z,75.96
2023-01-12T16:00:37.143Z,76.07
2023-01-12T16:03:38.117Z,75.83
2023-01-12T16:06:08.363Z,76.44
2023-01-12T16:08:40.882Z,76.07
2023-01-12T16:11:21.236Z,76.07
2023-01-12T16:13:55.663Z,76.09
2023-01-12T16:16:43.396Z,76.31
2023-01-12T16:19:23.908Z,76.12
2023-01-12T16:22:01.362Z,76.00
2023-01-12T16:24:35.213Z,76.06
2023-01-12T16:27:17.725Z,76.12
2023-01-12T16:29:50.583Z,76.55
2023-01-12T16:32:33.536Z,76.66
2023-01-12T16:35:13.024Z,76.56
2023-01-12T16:37:48.769Z,76.33
2023-01-12T16:40:22.652Z,76.33
2023-01-12T16:42:58.131Z,76.59
2023-01-12T16:45:31.438Z,76.33
2023-01-12T16:48:04.566Z,76.58
2023-01-12T16:50:47.241Z,76.63
2023-01-12T16:53:20.362Z,76.54
2023-01-12T16:55:54.118Z,76.74
2023-01-12T16:58:26.469Z,76.50
2023-01-12T17:01:01.671Z,76.98
2023-01-12T17:03:36.353Z,76.51
2023-01-12T17:06:14.014Z,76.76
2023-01-12T17:08:48.651Z,76.59
2023-01-12T17:11:24.951Z,76.76
2023-01-12T17:14:23.415Z,77.03
2023-01-12T17:16:59.171Z,76.74
2023-01-12T17:19:36.957Z,77.26
2023-01-12T17:22:11.488Z,76.96
2023-01-12T17:24:45.330Z,76.80
2023-01-12T17:27:20.340Z,77.05
2023-01-12T17:29:54.349Z,77.36
2023-01-12T17:32:33.684Z,77.34
2023-01-12T17:35:10.218Z,76.82
2023-01-12T17:37:43.678Z,77.43
2023-01-12T17:40:18.369Z,76.99
2023-01-12T17:43:08.234Z,77.26
2023-01-12T17:45:45.569Z,77.62
2023-01-12T17:48:22.322Z,77.31
2023-01-12T17:50:59.171Z,77.62
2023-01-12T17:53:32.252Z,77.18
2023-01-12T17:56:07.724Z,77.50
2023-01-12T17:58:42.487Z,77.45
2023-01-12T18:01:17.776Z,77.89
2023-01-12T18:03:51.601Z,77.93
2023-01-12T18:06:26.790Z,77.54
2023-01-12T18:09:03.607Z,78.07
2023-01-12T18:11:42.243Z,77.50
2023-01-12T18:14:15.732Z,77.99
2023-01-12T18:16:49.938Z,77.57
2023-01-12T18:19:23.057Z,77.66
2023-01-12T18:21:57.839Z,78.12
2023-01-12T18:24:31.294Z,78.16
2023-01-12T18:27:07.178Z,78.16
2023-01-12T18:29:41.458Z,78.04
2023-01-12T18:32:14.777Z,78.46
2023-01-12T18:34:48.005Z,78.32
2023-01-12T18:37:30.409Z,77.97
2023-01-12T18:40:03.563Z,77.84
2023-01-12T18:42:52.217Z,78.20
2023-01-12T18:45:25.816Z,78.44
2023-01-12T18:48:17.567Z,78.25
2023-01-12T18:51:13.655Z,78.54
2023-01-12T18:53:46.547Z,78.05
2023-01-12T18:56:20.001Z,78.15
2023-01-12T18:58:54.047Z,78.62
2023-01-12T19:01:31.896Z,78.67
2023-01-12T19:04:16.029Z,78.54
2023-01-12T19:06:51.269Z,78.45
2023-01-12T19:09:37.551Z,78.05
2023-01-12T19:12:11.329Z,78.02
2023-01-12T19:14:59.398Z,78.14
2023-01-12T19:17:42.237Z,78.44
2023-01-12T19:20:17.569Z,78.47
2023-01-12T19:23:07.908Z,78.07
2023-01-12T19:26:10.349Z,78.19
2023-01-12T19:28:43.386Z,78.65
2023-01-12T19:31:17.382Z,78.56
2023-01-12T19:33:50.307Z,78.54
2023-01-12T19:36:23.314Z,78.35
2023-01-12T19:39:04.422Z,78.41
2023-01-12T19:41:56.483Z,78.34
2023-01-12T19:44:29.649Z,78.33
2023-01-12T19:47:03.376Z,78.38
2023-01-12T19:49:36.002Z,78.54
2023-01-12T19:52:10.357Z,78.68
2023-01-12T19:54:41.668Z,78.22
2023-01-12T19:57:14.525Z,78.62
2023-01-12T19:59:48.594Z,78.54
2023-01-12T20:02:19.772Z,78.36
2023-01-12T20:04:54.223Z,78.42
2023-01-12T20:07:29.681Z,78.62
2023-01-12T20:10:05.129Z,78.14
2023-01-12T20:12:38.433Z,78.51
2023-01-12T20:15:15.569Z,78.45
2023-01-12T20:17:49.379Z,78.35
2023-01-12T20:20:22.744Z,78.10
2023-01-12T20:22:56.595Z,78.58
2023-01-12T20:25:30.747Z,78.26
2023-01-12T20:28:03.561Z,78.39
2023-01-12T20:30:47.466Z,78.17
2023-01-12T20:33:20.759Z,78.12
2023-01-12T20:35:54.037Z,78.38
2023-01-12T20:38:30.482Z,78.19
2023-01-12T20:41:11.536Z,78.42
2023-01-12T20:43:48.339Z,78.55
2023-01-12T20:46:21.349Z,78.08
2023-01-12T20:48:55.027Z,78.05
2023-01-12T20:51:30.408Z,78.25
2023-01-12T20:54:09.649Z,78.17
2023-01-12T20:56:49.141Z,78.37
2023-01-12T20:59:21.945Z,78.43
2023-01-12T21:01:54.951Z,78.10
2023-01-12T21:04:29.865Z,78.17
2023-01-12T21:07:01.994Z,78.23
2023-01-12T21:09:35.293Z,78.29
2023-01-12T21:12:14.558Z,78.43
2023-01-12T21:14:48.504Z,78.15
2023-01-12T21:17:21.341Z,78.44
2023-01-12T21:19:54.452Z,78.34
2023-01-12T21:22:30.968Z,78.12
2023-01-12T21:25:03.808Z,77.99
2023-01-12T21:27:37.254Z,78.24
2023-01-12T21:30:16.556Z,77.88
2023-01-12T21:32:50.118Z,78.17
2023-01-12T21:35:24.376Z,78.22
2023-01-12T21:37:56.520Z,78.05
2023-01-12T21:40:29.567Z,78.07
2023-01-12T21:43:16.242Z,78.10
2023-01-12T21:45:52.109Z,78.00
2023-01-12T21:48:25.731Z,78.06
2023-01-12T21:51:04.251Z,78.11
2023-01-12T21:53:37.113Z,78.34
2023-01-12T21:56:20.679Z,77.97
2023-01-12T21:58:53.532Z,77.93
2023-01-12T22:01:26.526Z,78.10
2023-01-12T22:04:02.603Z,77.87
2023-01-12T22:06:37.551Z,77.83
2023-01-12T22:09:17.912Z,78.10
2023-01-12T22:11:51.640Z,77.66
2023-01-12T22:14:24.523Z,77.67
2023-01-12T22:16:58.772Z,77.81
2023-01-12T22:19:32.033Z,77.63
2023-01-12T22:22:06.709Z,77.76
2023-01-12T22:24:39.974Z,77.75
2023-01-12T22:27:13.188Z,77.44
2023-01-12T22:29:48.472Z,77.48
2023-01-12T22:32:28.631Z,77.59
2023-01-12T22:35:01.793Z,77.30
2023-01-12T22:37:38.574Z,77.39
2023-01-12T22:40:13.599Z,77.36
2023-01-12T22:43:04.570Z,77.49
2023-01-12T22:45:39.307Z,77.60
2023-01-12T22:48:15.732Z,77.86
2023-01-12T22:50:54.742Z,77.12
2023-01-12T22:53:30.637Z,77.54
2023-01-12T22:56:04.826Z,77.36
2023-01-12T22:58:38.295Z,77.73
2023-01-12T23:01:11.651Z,77.47
2023-01-12T23:03:45.393Z,77.46
2023-01-12T23:06:19.138Z,77.45
2023-01-12T23:08:58.877Z,77.56
2023-01-12T23:11:31.542Z,77.42
2023-01-12T23:14:08.854Z,77.27
2023-01-12T23:16:41.621Z,77.21
2023-01-12T23:19:14.539Z,77.21
2023-01-12T23:21:48.854Z,77.60
2023-01-12T23:24:22.054Z,77.23
2023-01-12T23:26:58.329Z,77.16
2023-01-12T23:29:31.411Z,77.19
2023-01-12T23:32:04.019Z,77.50
2023-01-12T23:34:37.312Z,77.31
2023-01-12T23:37:10.612Z,77.44
2023-01-12T23:39:43.275Z,77.16
2023-01-12T23:42:15.818Z,77.34
2023-01-12T23:44:48.690Z,77.44
2023-01-12T23:47:21.701Z,77.35
2023-01-12T23:49:56.518Z,77.32
2023-01-12T23:52:33.154Z,77.50
2023-01-12T23:55:09.398Z,77.23
2023-01-12T23:57:41.816Z,77.28
